sensor_id;sensor_type;location;lat;lon;timestamp;pressure;altitude;pressure_sealevel;temperature;humidity
64628;BME280;68467;50.960;0.314;2023-04-08T00:01:53;100685.02;;;3.86;100.00
64628;BME280;68467;50.960;0.314;2023-04-08T00:04:20;100684.39;;;3.37;100.00
64628;BME280;68467;50.960;0.314;2023-04-08T00:06:47;100683.80;;;3.99;100.00
64628;BME280;68467;50.960;0.314;2023-04-08T00:09:14;100681.19;;;3.68;100.00
64628;BME280;68467;50.960;0.314;2023-04-08T00:11:42;100680.70;;;3.83;100.00
64628;BME280;68467;50.960;0.314;2023-04-08T00:14:09;100681.32;;;4.11;100.00
64628;BME280;68467;50.960;0.314;2023-04-08T00:16:36;100677.61;;;4.01;100.00
64628;BME280;68467;50.960;0.314;2023-04-08T00:19:04;100676.25;;;3.89;100.00
64628;BME280;68467;50.960;0.314;2023-04-08T00:21:31;100679.17;;;3.38;100.00
64628;BME280;68467;50.960;0.314;2023-04-08T00:23:59;100680.02;;;3.79;100.00
64628;BME280;68467;50.960;0.314;2023-04-08T00:26:26;100679.56;;;4.00;100.00
64628;BME280;68467;50.960;0.314;2023-04-08T00:28:53;100677.80;;;3.82;100.00
64628;BME280;68467;50.960;0.314;2023-04-08T00:31:20;100676.89;;;4.29;100.00
64628;BME280;68467;50.960;0.314;2023-04-08T00:33:47;100675.07;;;3.89;100.00
64628;BME280;68467;50.960;0.314;2023-04-08T00:36:14;100678.92;;;3.25;100.00
64628;BME280;68467;50.960;0.314;2023-04-08T00:38:42;100675.63;;;3.58;100.00
64628;BME280;68467;50.960;0.314;2023-04-08T00:41:09;100673.45;;;3.88;100.00
64628;BME280;68467;50.960;0.314;2023-04-08T00:43:36;100673.42;;;4.07;100.00
64628;BME280;68467;50.960;0.314;2023-04-08T00:46:04;100673.31;;;3.82;100.00
64628;BME280;68467;50.960;0.314;2023-04-08T00:48:31;100671.89;;;3.70;100.00
64628;BME280;68467;50.960;0.314;2023-04-08T00:50:58;100673.57;;;3.87;100.00
64628;BME280;68467;50.960;0.314;2023-04-08T00:53:26;100674.18;;;3.60;100.00
64628;BME280;68467;50.960;0.314;2023-04-08T00:55:53;100673.76;;;3.71;100.00
64628;BME280;68467;50.960;0.314;2023-04-08T00:58:20;100679.79;;;3.56;100.00
64628;BME280;68467;50.960;0.314;2023-04-08T01:00:53;100675.19;;;3.69;100.00
64628;BME280;68467;50.960;0.314;2023-04-08T01:03:26;100677.54;;;3.56;100.00
64628;BME280;68467;50.960;0.314;2023-04-08T01:06:02;100676.29;;;3.69;100.00
64628;BME280;68467;50.960;0.314;2023-04-08T01:08:34;100673.93;;;3.87;100.00
64628;BME280;68467;50.960;0.314;2023-04-08T01:11:07;100670.23;;;3.97;100.00
64628;BME280;68467;50.960;0.314;2023-04-08T01:13:39;100671.68;;;3.86;100.00
64628;BME280;68467;50.960;0.314;2023-04-08T01:16:10;100670.08;;;4.04;100.00
64628;BME280;68467;50.960;0.314;2023-04-08T01:18:39;100670.67;;;3.92;100.00
64628;BME280;68467;50.960;0.314;2023-04-08T01:21:07;100668.10;;;3.61;100.00
64628;BME280;68467;50.960;0.314;2023-04-08T01:23:42;100666.46;;;4.36;100.00
64628;BME280;68467;50.960;0.314;2023-04-08T01:26:20;100663.34;;;3.81;100.00
64628;BME280;68467;50.960;0.314;2023-04-08T01:28:50;100666.57;;;4.02;100.00
64628;BME280;68467;50.960;0.314;2023-04-08T01:31:18;100666.25;;;3.75;100.00
64628;BME280;68467;50.960;0.314;2023-04-08T01:33:47;100661.49;;;4.21;100.00
64628;BME280;68467;50.960;0.314;2023-04-08T01:36:16;100659.27;;;4.45;100.00
64628;BME280;68467;50.960;0.314;2023-04-08T01:38:45;100658.53;;;4.75;100.00
64628;BME280;68467;50.960;0.314;2023-04-08T01:41:13;100661.20;;;4.37;100.00
64628;BME280;68467;50.960;0.314;2023-04-08T01:43:43;100658.55;;;4.25;100.00
64628;BME280;68467;50.960;0.314;2023-04-08T01:46:11;100662.03;;;3.60;100.00
64628;BME280;68467;50.960;0.314;2023-04-08T01:48:39;100658.30;;;4.35;100.00
64628;BME280;68467;50.960;0.314;2023-04-08T01:51:08;100660.19;;;4.23;100.00
64628;BME280;68467;50.960;0.314;2023-04-08T01:53:36;100657.74;;;4.28;100.00
64628;BME280;68467;50.960;0.314;2023-04-08T01:56:06;100659.06;;;4.47;100.00
64628;BME280;68467;50.960;0.314;2023-04-08T01:58:38;100656.33;;;5.36;100.00
64628;BME280;68467;50.960;0.314;2023-04-08T02:01:10;100657.52;;;4.26;100.00
64628;BME280;68467;50.960;0.314;2023-04-08T02:03:38;100656.19;;;4.58;100.00
64628;BME280;68467;50.960;0.314;2023-04-08T02:06:07;100657.62;;;4.77;100.00
64628;BME280;68467;50.960;0.314;2023-04-08T02:08:34;100654.36;;;5.33;100.00
64628;BME280;68467;50.960;0.314;2023-04-08T02:11:02;100657.85;;;5.78;100.00
64628;BME280;68467;50.960;0.314;2023-04-08T02:13:30;100656.09;;;5.69;100.00
64628;BME280;68467;50.960;0.314;2023-04-08T02:16:03;100655.76;;;6.12;100.00
64628;BME280;68467;50.960;0.314;2023-04-08T02:18:35;100650.93;;;7.10;100.00
64628;BME280;68467;50.960;0.314;2023-04-08T02:21:10;100651.30;;;5.48;100.00
64628;BME280;68467;50.960;0.314;2023-04-08T02:23:39;100651.07;;;7.16;100.00
64628;BME280;68467;50.960;0.314;2023-04-08T02:26:12;100648.63;;;7.65;100.00
64628;BME280;68467;50.960;0.314;2023-04-08T02:28:40;100648.72;;;7.31;100.00
64628;BME280;68467;50.960;0.314;2023-04-08T02:31:10;100648.52;;;8.14;100.00
64628;BME280;68467;50.960;0.314;2023-04-08T02:33:38;100653.19;;;8.17;100.00
64628;BME280;68467;50.960;0.314;2023-04-08T02:36:06;100657.75;;;8.04;100.00
64628;BME280;68467;50.960;0.314;2023-04-08T02:38:34;100656.49;;;7.87;100.00
64628;BME280;68467;50.960;0.314;2023-04-08T02:41:01;100657.17;;;7.60;100.00
64628;BME280;68467;50.960;0.314;2023-04-08T02:43:28;100657.22;;;6.63;100.00
64628;BME280;68467;50.960;0.314;2023-04-08T02:45:55;100657.55;;;6.68;100.00
64628;BME280;68467;50.960;0.314;2023-04-08T02:48:23;100658.34;;;6.90;100.00
64628;BME280;68467;50.960;0.314;2023-04-08T02:50:50;100656.65;;;6.81;100.00
64628;BME280;68467;50.960;0.314;2023-04-08T02:53:17;100656.86;;;6.40;100.00
64628;BME280;68467;50.960;0.314;2023-04-08T02:55:45;100659.63;;;5.58;100.00
64628;BME280;68467;50.960;0.314;2023-04-08T02:58:12;100660.78;;;5.04;100.00
64628;BME280;68467;50.960;0.314;2023-04-08T03:00:39;100666.80;;;4.26;100.00
64628;BME280;68467;50.960;0.314;2023-04-08T03:03:06;100669.74;;;4.49;100.00
64628;BME280;68467;50.960;0.314;2023-04-08T03:05:34;100672.32;;;4.85;100.00
64628;BME280;68467;50.960;0.314;2023-04-08T03:08:01;100671.03;;;4.79;100.00
64628;BME280;68467;50.960;0.314;2023-04-08T03:10:28;100675.03;;;4.47;100.00
64628;BME280;68467;50.960;0.314;2023-04-08T03:12:56;100674.75;;;4.98;100.00
64628;BME280;68467;50.960;0.314;2023-04-08T03:15:23;100676.34;;;4.99;100.00
64628;BME280;68467;50.960;0.314;2023-04-08T03:17:50;100677.54;;;4.48;100.00
64628;BME280;68467;50.960;0.314;2023-04-08T03:20:18;100671.84;;;4.74;100.00
64628;BME280;68467;50.960;0.314;2023-04-08T03:22:45;100668.44;;;5.71;100.00
64628;BME280;68467;50.960;0.314;2023-04-08T03:25:12;100667.94;;;7.04;100.00
64628;BME280;68467;50.960;0.314;2023-04-08T03:27:40;100675.13;;;7.14;100.00
64628;BME280;68467;50.960;0.314;2023-04-08T03:30:07;100675.64;;;5.69;100.00
64628;BME280;68467;50.960;0.314;2023-04-08T03:32:35;100681.07;;;5.44;100.00
64628;BME280;68467;50.960;0.314;2023-04-08T03:35:02;100683.14;;;6.66;100.00
64628;BME280;68467;50.960;0.314;2023-04-08T03:37:30;100681.63;;;7.34;100.00
64628;BME280;68467;50.960;0.314;2023-04-08T03:39:58;100682.97;;;5.88;100.00
64628;BME280;68467;50.960;0.314;2023-04-08T03:42:25;100681.82;;;7.15;100.00
64628;BME280;68467;50.960;0.314;2023-04-08T03:44:52;100683.69;;;6.29;100.00
64628;BME280;68467;50.960;0.314;2023-04-08T03:47:19;100688.13;;;5.94;100.00
64628;BME280;68467;50.960;0.314;2023-04-08T03:49:46;100686.45;;;6.07;100.00
64628;BME280;68467;50.960;0.314;2023-04-08T03:52:13;100687.04;;;4.43;100.00
64628;BME280;68467;50.960;0.314;2023-04-08T03:54:40;100687.32;;;5.11;100.00
64628;BME280;68467;50.960;0.314;2023-04-08T03:57:08;100688.97;;;5.19;100.00
64628;BME280;68467;50.960;0.314;2023-04-08T03:59:36;100691.77;;;5.46;100.00
64628;BME280;68467;50.960;0.314;2023-04-08T04:02:02;100694.43;;;4.92;100.00
64628;BME280;68467;50.960;0.314;2023-04-08T04:04:30;100699.10;;;5.22;100.00
64628;BME280;68467;50.960;0.314;2023-04-08T04:06:57;100698.86;;;5.32;100.00
64628;BME280;68467;50.960;0.314;2023-04-08T04:09:24;100702.71;;;5.01;100.00
64628;BME280;68467;50.960;0.314;2023-04-08T04:11:51;100698.03;;;5.98;100.00
64628;BME280;68467;50.960;0.314;2023-04-08T04:14:18;100699.83;;;6.03;100.00
64628;BME280;68467;50.960;0.314;2023-04-08T04:16:46;100699.21;;;6.43;100.00
64628;BME280;68467;50.960;0.314;2023-04-08T04:19:14;100699.27;;;5.83;100.00
64628;BME280;68467;50.960;0.314;2023-04-08T04:21:41;100699.91;;;6.35;100.00
64628;BME280;68467;50.960;0.314;2023-04-08T04:24:09;100700.51;;;4.94;100.00
64628;BME280;68467;50.960;0.314;2023-04-08T04:26:36;100700.78;;;6.56;100.00
64628;BME280;68467;50.960;0.314;2023-04-08T04:29:03;100699.34;;;8.02;100.00
64628;BME280;68467;50.960;0.314;2023-04-08T04:31:30;100702.97;;;6.66;100.00
64628;BME280;68467;50.960;0.314;2023-04-08T04:33:57;100700.66;;;7.71;100.00
64628;BME280;68467;50.960;0.314;2023-04-08T04:36:25;100702.71;;;7.94;100.00
64628;BME280;68467;50.960;0.314;2023-04-08T04:38:52;100702.20;;;7.96;100.00
64628;BME280;68467;50.960;0.314;2023-04-08T04:41:19;100704.84;;;8.06;100.00
64628;BME280;68467;50.960;0.314;2023-04-08T04:43:47;100709.81;;;7.91;100.00
64628;BME280;68467;50.960;0.314;2023-04-08T04:46:14;100710.27;;;8.60;100.00
64628;BME280;68467;50.960;0.314;2023-04-08T04:48:42;100717.90;;;7.61;100.00
64628;BME280;68467;50.960;0.314;2023-04-08T04:51:09;100717.67;;;8.68;100.00
64628;BME280;68467;50.960;0.314;2023-04-08T04:53:36;100720.47;;;8.73;100.00
64628;BME280;68467;50.960;0.314;2023-04-08T04:56:03;100724.48;;;8.06;100.00
64628;BME280;68467;50.960;0.314;2023-04-08T04:58:31;100726.83;;;8.34;100.00
64628;BME280;68467;50.960;0.314;2023-04-08T05:00:58;100726.28;;;8.45;100.00
64628;BME280;68467;50.960;0.314;2023-04-08T05:03:25;100725.10;;;8.94;100.00
64628;BME280;68467;50.960;0.314;2023-04-08T05:05:53;100724.34;;;8.49;100.00
64628;BME280;68467;50.960;0.314;2023-04-08T05:08:21;100727.39;;;7.96;100.00
64628;BME280;68467;50.960;0.314;2023-04-08T05:10:48;100726.44;;;8.36;100.00
64628;BME280;68467;50.960;0.314;2023-04-08T05:13:16;100726.16;;;8.07;100.00
64628;BME280;68467;50.960;0.314;2023-04-08T05:15:43;100726.83;;;8.53;100.00
64628;BME280;68467;50.960;0.314;2023-04-08T05:18:10;100730.63;;;8.68;100.00
64628;BME280;68467;50.960;0.314;2023-04-08T05:20:38;100735.94;;;8.65;100.00
64628;BME280;68467;50.960;0.314;2023-04-08T05:23:05;100736.27;;;8.40;100.00
64628;BME280;68467;50.960;0.314;2023-04-08T05:25:32;100737.99;;;8.26;100.00
64628;BME280;68467;50.960;0.314;2023-04-08T05:27:59;100739.23;;;7.26;100.00
64628;BME280;68467;50.960;0.314;2023-04-08T05:30:27;100741.08;;;7.73;100.00
64628;BME280;68467;50.960;0.314;2023-04-08T05:32:54;100745.33;;;7.98;100.00
64628;BME280;68467;50.960;0.314;2023-04-08T05:35:21;100751.85;;;7.46;100.00
64628;BME280;68467;50.960;0.314;2023-04-08T05:37:49;100752.78;;;7.60;100.00
64628;BME280;68467;50.960;0.314;2023-04-08T05:40:16;100755.46;;;8.18;100.00
64628;BME280;68467;50.960;0.314;2023-04-08T05:42:43;100755.80;;;8.44;100.00
64628;BME280;68467;50.960;0.314;2023-04-08T05:45:11;100755.08;;;8.75;100.00
64628;BME280;68467;50.960;0.314;2023-04-08T05:47:38;100758.74;;;8.32;100.00
64628;BME280;68467;50.960;0.314;2023-04-08T05:50:07;100760.13;;;8.23;100.00
64628;BME280;68467;50.960;0.314;2023-04-08T05:52:35;100759.32;;;7.99;100.00
64628;BME280;68467;50.960;0.314;2023-04-08T05:55:02;100760.08;;;8.41;100.00
64628;BME280;68467;50.960;0.314;2023-04-08T05:57:29;100762.68;;;8.45;100.00
64628;BME280;68467;50.960;0.314;2023-04-08T05:59:57;100763.86;;;8.45;100.00
64628;BME280;68467;50.960;0.314;2023-04-08T06:02:24;100764.87;;;8.18;100.00
64628;BME280;68467;50.960;0.314;2023-04-08T06:04:51;100765.15;;;8.80;100.00
64628;BME280;68467;50.960;0.314;2023-04-08T06:07:18;100766.95;;;8.37;100.00
64628;BME280;68467;50.960;0.314;2023-04-08T06:09:46;100769.24;;;8.75;100.00
64628;BME280;68467;50.960;0.314;2023-04-08T06:12:13;100774.03;;;8.91;100.00
64628;BME280;68467;50.960;0.314;2023-04-08T06:14:40;100775.23;;;8.97;100.00
64628;BME280;68467;50.960;0.314;2023-04-08T06:17:07;100778.54;;;8.43;100.00
64628;BME280;68467;50.960;0.314;2023-04-08T06:19:35;100776.06;;;9.22;100.00
64628;BME280;68467;50.960;0.314;2023-04-08T06:22:03;100780.68;;;8.97;100.00
64628;BME280;68467;50.960;0.314;2023-04-08T06:24:31;100782.88;;;8.61;100.00
64628;BME280;68467;50.960;0.314;2023-04-08T06:26:58;100786.30;;;7.78;100.00
64628;BME280;68467;50.960;0.314;2023-04-08T06:29:25;100786.53;;;8.80;100.00
64628;BME280;68467;50.960;0.314;2023-04-08T06:31:53;100787.91;;;9.00;100.00
64628;BME280;68467;50.960;0.314;2023-04-08T06:34:20;100792.44;;;8.62;100.00
64628;BME280;68467;50.960;0.314;2023-04-08T06:36:47;100798.57;;;8.34;100.00
64628;BME280;68467;50.960;0.314;2023-04-08T06:39:14;100802.56;;;7.42;100.00
64628;BME280;68467;50.960;0.314;2023-04-08T06:41:42;100799.16;;;8.10;100.00
64628;BME280;68467;50.960;0.314;2023-04-08T06:44:10;100801.17;;;7.35;100.00
64628;BME280;68467;50.960;0.314;2023-04-08T06:46:38;100806.04;;;7.28;100.00
64628;BME280;68467;50.960;0.314;2023-04-08T06:49:05;100808.68;;;6.54;100.00
64628;BME280;68467;50.960;0.314;2023-04-08T06:51:32;100811.94;;;6.68;100.00
64628;BME280;68467;50.960;0.314;2023-04-08T06:53:59;100814.00;;;6.26;100.00
64628;BME280;68467;50.960;0.314;2023-04-08T06:56:26;100816.42;;;7.10;100.00
64628;BME280;68467;50.960;0.314;2023-04-08T06:58:53;100817.96;;;6.19;100.00
64628;BME280;68467;50.960;0.314;2023-04-08T07:01:20;100823.75;;;6.32;100.00
64628;BME280;68467;50.960;0.314;2023-04-08T07:03:48;100829.71;;;7.14;100.00
64628;BME280;68467;50.960;0.314;2023-04-08T07:06:15;100831.87;;;7.68;100.00
64628;BME280;68467;50.960;0.314;2023-04-08T07:08:42;100835.14;;;7.60;100.00
64628;BME280;68467;50.960;0.314;2023-04-08T07:11:10;100837.69;;;7.36;100.00
64628;BME280;68467;50.960;0.314;2023-04-08T07:13:37;100837.40;;;7.27;100.00
64628;BME280;68467;50.960;0.314;2023-04-08T07:16:05;100844.72;;;6.18;100.00
64628;BME280;68467;50.960;0.314;2023-04-08T07:18:32;100846.11;;;6.95;100.00
64628;BME280;68467;50.960;0.314;2023-04-08T07:20:59;100846.20;;;7.16;100.00
64628;BME280;68467;50.960;0.314;2023-04-08T07:23:27;100850.63;;;6.79;100.00
64628;BME280;68467;50.960;0.314;2023-04-08T07:25:54;100852.23;;;7.31;100.00
64628;BME280;68467;50.960;0.314;2023-04-08T07:28:22;100858.61;;;6.58;100.00
64628;BME280;68467;50.960;0.314;2023-04-08T07:30:49;100859.91;;;7.23;100.00
64628;BME280;68467;50.960;0.314;2023-04-08T07:33:16;100861.17;;;7.22;100.00
64628;BME280;68467;50.960;0.314;2023-04-08T07:35:44;100864.95;;;6.99;100.00
64628;BME280;68467;50.960;0.314;2023-04-08T07:38:11;100866.53;;;6.99;100.00
64628;BME280;68467;50.960;0.314;2023-04-08T07:40:39;100868.11;;;7.08;100.00
64628;BME280;68467;50.960;0.314;2023-04-08T07:43:13;100867.08;;;6.81;100.00
64628;BME280;68467;50.960;0.314;2023-04-08T07:45:40;100869.81;;;6.24;100.00
64628;BME280;68467;50.960;0.314;2023-04-08T07:48:07;100872.56;;;6.68;100.00
64628;BME280;68467;50.960;0.314;2023-04-08T07:50:35;100874.44;;;6.69;100.00
64628;BME280;68467;50.960;0.314;2023-04-08T07:53:03;100873.58;;;6.80;100.00
64628;BME280;68467;50.960;0.314;2023-04-08T07:55:33;100874.86;;;6.82;100.00
64628;BME280;68467;50.960;0.314;2023-04-08T07:58:01;100870.21;;;6.78;100.00
64628;BME280;68467;50.960;0.314;2023-04-08T08:00:28;100873.77;;;7.46;100.00
64628;BME280;68467;50.960;0.314;2023-04-08T08:02:55;100870.89;;;6.78;100.00
64628;BME280;68467;50.960;0.314;2023-04-08T08:05:22;100872.14;;;8.23;100.00
64628;BME280;68467;50.960;0.314;2023-04-08T08:07:49;100872.64;;;8.31;100.00
64628;BME280;68467;50.960;0.314;2023-04-08T08:10:16;100872.18;;;7.67;100.00
64628;BME280;68467;50.960;0.314;2023-04-08T08:12:44;100877.62;;;8.33;100.00
64628;BME280;68467;50.960;0.314;2023-04-08T08:15:11;100878.15;;;9.31;100.00
64628;BME280;68467;50.960;0.314;2023-04-08T08:17:38;100878.21;;;9.26;100.00
64628;BME280;68467;50.960;0.314;2023-04-08T08:20:07;100874.51;;;10.19;100.00
64628;BME280;68467;50.960;0.314;2023-04-08T08:22:34;100876.86;;;8.51;100.00
64628;BME280;68467;50.960;0.314;2023-04-08T08:25:03;100876.77;;;9.19;100.00
64628;BME280;68467;50.960;0.314;2023-04-08T08:27:31;100871.49;;;10.35;100.00
64628;BME280;68467;50.960;0.314;2023-04-08T08:30:05;100869.61;;;11.29;100.00
64628;BME280;68467;50.960;0.314;2023-04-08T08:32:32;100876.88;;;8.86;100.00
64628;BME280;68467;50.960;0.314;2023-04-08T08:35:01;100879.91;;;7.88;100.00
64628;BME280;68467;50.960;0.314;2023-04-08T08:37:28;100875.11;;;9.05;100.00
64628;BME280;68467;50.960;0.314;2023-04-08T08:39:55;100873.33;;;9.09;100.00
64628;BME280;68467;50.960;0.314;2023-04-08T08:42:24;100873.05;;;9.91;100.00
64628;BME280;68467;50.960;0.314;2023-04-08T08:44:52;100873.47;;;9.85;100.00
64628;BME280;68467;50.960;0.314;2023-04-08T08:47:20;100873.58;;;9.49;100.00
64628;BME280;68467;50.960;0.314;2023-04-08T08:49:47;100871.97;;;9.10;100.00
64628;BME280;68467;50.960;0.314;2023-04-08T08:52:15;100870.82;;;8.71;100.00
64628;BME280;68467;50.960;0.314;2023-04-08T08:54:43;100873.15;;;7.77;100.00
64628;BME280;68467;50.960;0.314;2023-04-08T08:57:19;100875.70;;;7.18;100.00
64628;BME280;68467;50.960;0.314;2023-04-08T08:59:47;100868.89;;;8.63;100.00
64628;BME280;68467;50.960;0.314;2023-04-08T09:02:31;100873.28;;;8.37;100.00
64628;BME280;68467;50.960;0.314;2023-04-08T09:05:00;100874.07;;;8.36;100.00
64628;BME280;68467;50.960;0.314;2023-04-08T09:07:28;100878.58;;;7.94;100.00
64628;BME280;68467;50.960;0.314;2023-04-08T09:09:58;100884.00;;;8.38;100.00
64628;BME280;68467;50.960;0.314;2023-04-08T09:12:25;100883.05;;;9.30;100.00
64628;BME280;68467;50.960;0.314;2023-04-08T09:15:03;100891.94;;;8.97;100.00
64628;BME280;68467;50.960;0.314;2023-04-08T09:17:32;100896.19;;;9.29;100.00
64628;BME280;68467;50.960;0.314;2023-04-08T09:20:05;100896.63;;;8.78;100.00
64628;BME280;68467;50.960;0.314;2023-04-08T09:22:32;100899.42;;;8.47;100.00
64628;BME280;68467;50.960;0.314;2023-04-08T09:24:59;100898.72;;;8.69;100.00
64628;BME280;68467;50.960;0.314;2023-04-08T09:27:33;100902.53;;;8.46;100.00
64628;BME280;68467;50.960;0.314;2023-04-08T09:30:12;100901.20;;;8.68;100.00
64628;BME280;68467;50.960;0.314;2023-04-08T09:32:47;100902.53;;;9.49;100.00
64628;BME280;68467;50.960;0.314;2023-04-08T09:35:14;100902.22;;;9.48;100.00
64628;BME280;68467;50.960;0.314;2023-04-08T09:37:42;100903.48;;;9.32;100.00
64628;BME280;68467;50.960;0.314;2023-04-08T09:40:10;100907.73;;;9.55;100.00
64628;BME280;68467;50.960;0.314;2023-04-08T09:42:41;100903.84;;;8.79;100.00
64628;BME280;68467;50.960;0.314;2023-04-08T09:45:11;100905.21;;;9.46;100.00
64628;BME280;68467;50.960;0.314;2023-04-08T09:47:46;100905.70;;;9.25;100.00
64628;BME280;68467;50.960;0.314;2023-04-08T09:50:19;100906.40;;;9.25;100.00
64628;BME280;68467;50.960;0.314;2023-04-08T09:52:55;100905.19;;;9.81;100.00
64628;BME280;68467;50.960;0.314;2023-04-08T09:55:25;100893.65;;;10.37;100.00
64628;BME280;68467;50.960;0.314;2023-04-08T09:57:57;100893.45;;;10.42;100.00
64628;BME280;68467;50.960;0.314;2023-04-08T10:00:31;100891.14;;;10.28;100.00
64628;BME280;68467;50.960;0.314;2023-04-08T10:03:05;100884.21;;;11.91;100.00
64628;BME280;68467;50.960;0.314;2023-04-08T10:05:33;100890.15;;;10.47;100.00
64628;BME280;68467;50.960;0.314;2023-04-08T10:08:03;100893.64;;;9.16;100.00
64628;BME280;68467;50.960;0.314;2023-04-08T10:10:31;100889.64;;;9.94;100.00
64628;BME280;68467;50.960;0.314;2023-04-08T10:12:59;100892.23;;;10.04;100.00
64628;BME280;68467;50.960;0.314;2023-04-08T10:15:28;100890.35;;;10.07;100.00
64628;BME280;68467;50.960;0.314;2023-04-08T10:20:55;100890.18;;;9.76;100.00
64628;BME280;68467;50.960;0.314;2023-04-08T10:23:52;100879.97;;;10.84;100.00
64628;BME280;68467;50.960;0.314;2023-04-08T10:26:38;100880.01;;;10.16;100.00
64628;BME280;68467;50.960;0.314;2023-04-08T10:29:37;100886.91;;;9.35;100.00
64628;BME280;68467;50.960;0.314;2023-04-08T10:32:05;100884.22;;;9.43;100.00
64628;BME280;68467;50.960;0.314;2023-04-08T10:34:32;100887.35;;;10.28;100.00
64628;BME280;68467;50.960;0.314;2023-04-08T10:36:59;100885.77;;;10.68;100.00
64628;BME280;68467;50.960;0.314;2023-04-08T10:39:26;100894.84;;;9.68;100.00
64628;BME280;68467;50.960;0.314;2023-04-08T10:41:53;100899.54;;;8.43;100.00
64628;BME280;68467;50.960;0.314;2023-04-08T10:44:22;100896.89;;;10.45;100.00
64628;BME280;68467;50.960;0.314;2023-04-08T10:46:51;100895.55;;;10.49;100.00
64628;BME280;68467;50.960;0.314;2023-04-08T10:49:18;100897.17;;;11.02;100.00
64628;BME280;68467;50.960;0.314;2023-04-08T10:51:46;100899.09;;;10.78;100.00
64628;BME280;68467;50.960;0.314;2023-04-08T10:54:15;100895.72;;;10.71;100.00
64628;BME280;68467;50.960;0.314;2023-04-08T10:56:49;100903.98;;;10.04;100.00
64628;BME280;68467;50.960;0.314;2023-04-08T10:59:26;100894.24;;;11.91;100.00
64628;BME280;68467;50.960;0.314;2023-04-08T11:01:54;100895.61;;;10.17;100.00
64628;BME280;68467;50.960;0.314;2023-04-08T11:04:21;100899.52;;;9.75;100.00
64628;BME280;68467;50.960;0.314;2023-04-08T11:06:53;100895.35;;;9.61;100.00
64628;BME280;68467;50.960;0.314;2023-04-08T11:09:21;100893.51;;;9.66;100.00
64628;BME280;68467;50.960;0.314;2023-04-08T11:11:48;100888.98;;;9.83;100.00
64628;BME280;68467;50.960;0.314;2023-04-08T11:14:20;100891.30;;;10.22;100.00
64628;BME280;68467;50.960;0.314;2023-04-08T11:16:47;100886.28;;;10.57;100.00
64628;BME280;68467;50.960;0.314;2023-04-08T11:19:24;100881.77;;;10.96;100.00
64628;BME280;68467;50.960;0.314;2023-04-08T11:21:57;100881.11;;;10.60;100.00
64628;BME280;68467;50.960;0.314;2023-04-08T11:24:25;100882.94;;;10.45;100.00
64628;BME280;68467;50.960;0.314;2023-04-08T11:26:53;100884.72;;;9.51;100.00
64628;BME280;68467;50.960;0.314;2023-04-08T11:29:21;100884.98;;;9.23;100.00
64628;BME280;68467;50.960;0.314;2023-04-08T11:31:49;100880.53;;;8.77;100.00
64628;BME280;68467;50.960;0.314;2023-04-08T11:34:21;100885.34;;;8.74;100.00
64628;BME280;68467;50.960;0.314;2023-04-08T11:36:49;100879.68;;;9.61;100.00
64628;BME280;68467;50.960;0.314;2023-04-08T11:39:17;100879.81;;;9.68;100.00
64628;BME280;68467;50.960;0.314;2023-04-08T11:41:49;100882.85;;;9.52;100.00
64628;BME280;68467;50.960;0.314;2023-04-08T11:44:17;100886.49;;;9.25;100.00
64628;BME280;68467;50.960;0.314;2023-04-08T11:46:52;100881.81;;;9.90;100.00
64628;BME280;68467;50.960;0.314;2023-04-08T11:49:19;100877.42;;;11.16;100.00
64628;BME280;68467;50.960;0.314;2023-04-08T11:51:56;100880.31;;;10.14;100.00
64628;BME280;68467;50.960;0.314;2023-04-08T11:54:27;100881.07;;;9.91;100.00
64628;BME280;68467;50.960;0.314;2023-04-08T11:56:55;100881.31;;;9.97;100.00
64628;BME280;68467;50.960;0.314;2023-04-08T11:59:22;100874.89;;;10.54;100.00
64628;BME280;68467;50.960;0.314;2023-04-08T12:01:51;100866.77;;;11.36;100.00
64628;BME280;68467;50.960;0.314;2023-04-08T12:04:19;100862.59;;;12.61;100.00
64628;BME280;68467;50.960;0.314;2023-04-08T12:06:46;100860.94;;;13.33;100.00
64628;BME280;68467;50.960;0.314;2023-04-08T12:09:13;100859.43;;;13.47;100.00
64628;BME280;68467;50.960;0.314;2023-04-08T12:11:41;100858.14;;;12.28;100.00
64628;BME280;68467;50.960;0.314;2023-04-08T12:14:09;100861.45;;;11.08;100.00
64628;BME280;68467;50.960;0.314;2023-04-08T12:16:36;100857.85;;;10.92;100.00
64628;BME280;68467;50.960;0.314;2023-04-08T12:19:03;100852.89;;;11.46;100.00
64628;BME280;68467;50.960;0.314;2023-04-08T12:21:31;100852.98;;;11.64;100.00
64628;BME280;68467;50.960;0.314;2023-04-08T12:23:59;100856.36;;;11.67;100.00
64628;BME280;68467;50.960;0.314;2023-04-08T12:26:26;100855.65;;;12.40;100.00
64628;BME280;68467;50.960;0.314;2023-04-08T12:28:53;100855.95;;;13.01;100.00
64628;BME280;68467;50.960;0.314;2023-04-08T12:31:20;100858.09;;;12.50;100.00
64628;BME280;68467;50.960;0.314;2023-04-08T12:33:48;100855.75;;;11.67;100.00
64628;BME280;68467;50.960;0.314;2023-04-08T12:36:15;100850.73;;;11.58;100.00
64628;BME280;68467;50.960;0.314;2023-04-08T12:38:42;100851.40;;;11.99;100.00
64628;BME280;68467;50.960;0.314;2023-04-08T12:41:10;100853.01;;;11.84;100.00
64628;BME280;68467;50.960;0.314;2023-04-08T12:43:38;100849.90;;;11.35;100.00
64628;BME280;68467;50.960;0.314;2023-04-08T12:46:05;100849.03;;;10.30;100.00
64628;BME280;68467;50.960;0.314;2023-04-08T12:48:33;100851.90;;;10.11;100.00
64628;BME280;68467;50.960;0.314;2023-04-08T12:51:00;100852.14;;;10.49;100.00
64628;BME280;68467;50.960;0.314;2023-04-08T12:53:27;100853.33;;;10.59;100.00
64628;BME280;68467;50.960;0.314;2023-04-08T12:55:54;100854.88;;;10.84;100.00
64628;BME280;68467;50.960;0.314;2023-04-08T12:58:21;100851.94;;;10.16;100.00